Time;durP1;ratioP1;P1;durP2;ratioP2;P2;SDS_P1;SDS_P2;PMS_P1;PMS_P2;Temp;Humidity;BMP_temperature;BMP_pressure;BME280_temperature;BME280_humidity;BME280_pressure;Samples;Min_cycle;Max_cycle;Signal;HPM_P1;HPM_P2
2021/07/28 00:00:32;;;;;;;19.75;17.70;;;;;;;22.86;58.87;100589.09;5052359;28;20472;-84
2021/07/28 00:02:57;;;;;;;19.00;16.73;;;;;;;22.99;58.39;100579.13;5057698;28;20039;-84
2021/07/28 00:05:22;;;;;;;17.30;15.32;;;;;;;22.97;58.45;100581.28;5055753;28;20111;-83
2021/07/28 00:07:48;;;;;;;18.60;15.55;;;;;;;22.87;58.83;100571.59;5053793;28;20389;-84
2021/07/28 00:10:13;;;;;;;19.48;15.32;;;;;;;22.87;57.97;100548.84;5055428;28;20063;-84
2021/07/28 00:12:38;;;;;;;16.50;14.38;;;;;;;22.83;59.10;100536.59;5058237;28;20024;-84
2021/07/28 00:15:05;;;;;;;18.85;16.83;;;;;;;22.87;59.17;100568.03;5057242;28;20031;-84
2021/07/28 00:17:31;;;;;;;18.02;15.88;;;;;;;22.81;59.79;100569.75;5056208;28;20036;-84
2021/07/28 00:25:05;;;;;;;17.90;15.27;;;;;;;22.75;59.96;100559.66;5075597;28;20086;-84
2021/07/28 00:27:31;;;;;;;19.75;15.93;;;;;;;22.81;60.12;100558.78;5073149;28;20033;-84
2021/07/28 00:29:57;;;;;;;16.50;14.82;;;;;;;22.79;59.91;100555.41;5073971;28;20031;-83
2021/07/28 00:32:22;;;;;;;19.83;16.67;;;;;;;22.72;59.93;100551.88;5073484;28;20027;-84
2021/07/28 00:34:47;;;;;;;21.25;16.50;;;;;;;22.79;59.79;100543.59;5072966;28;20024;-84
2021/07/28 00:37:13;;;;;;;16.83;14.65;;;;;;;22.74;59.82;100547.00;5072591;28;20031;-83
2021/07/28 00:39:38;;;;;;;17.20;14.10;;;;;;;22.73;59.82;100549.97;5073287;28;20029;-83
2021/07/28 00:42:04;;;;;;;20.25;14.48;;;;;;;22.68;59.75;100554.22;5073363;28;20028;-83
2021/07/28 00:44:29;;;;;;;16.08;13.73;;;;;;;22.71;60.31;100542.81;5072693;28;20419;-83
2021/07/28 00:46:55;;;;;;;18.98;16.98;;;;;;;22.58;61.01;100537.41;5075305;28;20052;-84
2021/07/28 00:49:21;;;;;;;19.00;17.10;;;;;;;22.56;61.05;100542.28;5074225;28;20525;-84
2021/07/28 00:51:48;;;;;;;17.50;15.45;;;;;;;22.59;60.84;100547.31;5075245;28;20024;-84
2021/07/28 00:54:13;;;;;;;17.20;14.40;;;;;;;22.58;60.29;100544.78;5073482;28;20625;-84
2021/07/28 00:56:38;;;;;;;19.38;16.70;;;;;;;22.48;61.32;100535.13;5074735;28;20040;-84
2021/07/28 00:59:08;;;;;;;23.92;16.90;;;;;;;22.44;61.32;100533.91;5074311;28;20035;-83
2021/07/28 01:01:35;;;;;;;20.85;16.70;;;;;;;22.41;61.64;100528.88;5073583;28;20032;-84
2021/07/28 01:04:01;;;;;;;20.10;16.88;;;;;;;22.42;62.03;100530.53;5073522;28;20032;-84
2021/07/28 01:06:26;;;;;;;18.73;15.30;;;;;;;22.36;61.63;100531.41;5072959;28;20399;-83
2021/07/28 01:08:52;;;;;;;19.95;16.40;;;;;;;22.22;62.10;100527.03;5072993;28;20032;-84
2021/07/28 01:11:25;;;;;;;17.33;14.73;;;;;;;22.18;62.64;100531.28;5071291;28;20032;-83
2021/07/28 01:13:51;;;;;;;16.60;14.77;;;;;;;22.18;62.19;100534.03;5072779;28;20032;-84
2021/07/28 01:16:21;;;;;;;18.67;16.67;;;;;;;22.12;61.88;100532.13;5072456;28;20032;-84
2021/07/28 01:18:47;;;;;;;19.63;17.30;;;;;;;21.79;63.62;100524.84;5074865;28;20396;-84
2021/07/28 01:21:13;;;;;;;18.52;16.63;;;;;;;21.41;64.97;100516.50;5073482;28;20055;-83
2021/07/28 01:23:39;;;;;;;18.23;16.33;;;;;;;21.38;65.28;100516.94;5073615;28;20029;-84
2021/07/28 01:26:06;;;;;;;21.70;17.25;;;;;;;21.18;66.02;100514.16;5071488;28;20480;-83
2021/07/28 01:28:33;;;;;;;18.98;16.20;;;;;;;21.57;63.74;100519.63;5072716;28;20037;-84
2021/07/28 01:31:25;;;;;;;19.42;16.27;;;;;;;21.54;63.89;100508.28;5071713;28;20024;-83
2021/07/28 01:33:50;;;;;;;;;;;;;;;21.52;64.31;100505.75;5067555;28;20044;-84
2021/07/28 01:36:18;;;;;;;17.90;14.60;;;;;;;21.59;63.39;100511.22;5071792;28;19919;-84
2021/07/28 01:38:44;;;;;;;19.38;16.40;;;;;;;21.42;65.06;100508.06;5070876;28;20032;-84
2021/07/28 01:41:10;;;;;;;16.35;14.40;;;;;;;21.53;64.26;100465.56;5071405;28;20039;-84
2021/07/28 01:43:36;;;;;;;16.35;13.90;;;;;;;21.47;64.48;100472.72;5071206;28;20055;-83
2021/07/28 01:46:03;;;;;;;20.67;16.65;;;;;;;21.45;64.99;100498.59;5069261;28;20116;-83
2021/07/28 01:48:29;;;;;;;24.08;18.30;;;;;;;21.55;64.60;100504.50;5071264;28;20130;-84
2021/07/28 01:50:55;;;;;;;15.90;14.15;;;;;;;21.49;64.50;100508.94;5070304;28;20034;-83
2021/07/28 01:53:22;;;;;;;16.15;13.68;;;;;;;21.46;64.88;100505.78;5071678;28;20020;-84
2021/07/28 01:55:48;;;;;;;16.27;14.60;;;;;;;21.46;64.76;100492.94;5071536;28;20035;-83
2021/07/28 01:58:13;;;;;;;18.95;16.92;;;;;;;21.37;65.28;100487.91;5070774;28;20028;-84
2021/07/28 02:00:39;;;;;;;19.38;14.43;;;;;;;21.37;64.91;100494.22;5071507;28;20031;-84
2021/07/28 02:03:05;;;;;;;20.60;16.15;;;;;;;21.43;65.33;100496.09;5071375;28;20032;-84
2021/07/28 02:05:34;;;;;;;19.40;17.35;;;;;;;21.46;65.00;100497.56;5071620;28;20036;-83
2021/07/28 02:08:04;;;;;;;20.13;14.45;;;;;;;21.50;64.45;100498.81;5069868;28;20025;-84
2021/07/28 02:10:39;;;;;;;21.65;17.48;;;;;;;21.52;64.75;100497.56;5070121;28;20025;-84
2021/07/28 02:13:05;;;;;;;19.42;16.40;;;;;;;21.50;64.74;100501.56;5069461;28;20052;-84
2021/07/28 02:15:33;;;;;;;19.92;17.83;;;;;;;21.26;65.67;100503.84;5070456;28;20067;-84
2021/07/28 02:17:59;;;;;;;19.77;17.42;;;;;;;21.37;65.17;100488.75;5068991;28;20123;-84
2021/07/28 02:20:25;;;;;;;21.90;17.05;;;;;;;21.24;65.96;100477.75;5071417;28;20063;-84
2021/07/28 02:22:51;;;;;;;16.75;15.05;;;;;;;21.42;64.91;100472.50;5070212;28;20029;-83
2021/07/28 02:25:17;;;;;;;16.40;14.70;;;;;;;21.56;64.47;100500.69;5068860;28;20337;-84
2021/07/28 02:27:43;;;;;;;21.08;16.70;;;;;;;21.40;65.02;100503.91;5068804;28;20189;-84
2021/07/28 02:30:11;;;;;;;16.23;14.40;;;;;;;21.57;64.52;100503.22;5070768;28;20081;-84
2021/07/28 02:32:37;;;;;;;25.45;19.17;;;;;;;21.51;65.67;100493.13;5071031;28;20028;-84
2021/07/28 02:35:03;;;;;;;17.50;15.55;;;;;;;21.53;64.63;100501.13;5073935;28;20526;-83
2021/07/28 02:37:28;;;;;;;19.67;15.82;;;;;;;21.43;65.48;100482.41;5075087;28;20039;-84
2021/07/28 02:39:54;;;;;;;22.17;18.67;;;;;;;21.46;65.39;100492.94;5074298;28;20025;-83
2021/07/28 02:42:19;;;;;;;18.77;16.70;;;;;;;21.59;65.35;100491.22;5074030;28;20039;-83
2021/07/28 02:44:44;;;;;;;21.30;17.55;;;;;;;21.52;64.91;100415.47;5073565;28;20066;-83
2021/07/28 02:47:10;;;;;;;20.30;14.65;;;;;;;21.62;64.38;100408.69;5070845;28;20029;-83
2021/07/28 02:49:36;;;;;;;22.98;18.42;;;;;;;21.54;64.95;100410.59;5072210;28;20029;-83
2021/07/28 02:52:02;;;;;;;21.33;19.10;;;;;;;21.51;65.48;100413.75;5072291;28;20423;-83
2021/07/28 02:54:27;;;;;;;24.85;18.27;;;;;;;21.55;65.08;100412.31;5070597;28;20071;-83
2021/07/28 02:56:53;;;;;;;20.17;16.80;;;;;;;21.58;64.23;100413.78;5070645;28;20028;-83
2021/07/28 02:59:18;;;;;;;26.50;19.45;;;;;;;21.50;65.10;100412.09;5070235;28;20109;-83
2021/07/28 03:01:43;;;;;;;21.08;18.77;;;;;;;21.57;64.87;100404.69;5074325;28;20031;-83
2021/07/28 03:04:09;;;;;;;28.77;19.73;;;;;;;21.55;65.05;100400.53;5074825;28;20025;-84
2021/07/28 03:06:34;;;;;;;21.52;19.10;;;;;;;21.53;64.88;100408.94;5073300;28;20115;-83
2021/07/28 03:09:00;;;;;;;18.20;16.30;;;;;;;21.53;64.74;100413.56;5073458;28;20033;-83
2021/07/28 03:11:25;;;;;;;23.10;19.95;;;;;;;21.47;65.00;100411.69;5078387;28;20028;-84
2021/07/28 03:13:51;;;;;;;21.17;18.90;;;;;;;21.48;64.75;100411.47;5077746;28;20044;-83
2021/07/28 03:16:16;;;;;;;22.52;20.02;;;;;;;21.46;65.02;100408.13;5076511;28;20110;-84
2021/07/28 03:18:41;;;;;;;21.08;18.83;;;;;;;21.41;65.17;100402.44;5076830;28;20035;-84
2021/07/28 03:21:07;;;;;;;22.08;18.67;;;;;;;21.43;65.27;100405.81;5076585;28;20558;-83
2021/07/28 03:23:32;;;;;;;25.85;22.23;;;;;;;21.23;66.39;100415.94;5075853;28;20103;-83
2021/07/28 03:25:58;;;;;;;28.65;21.88;;;;;;;21.26;65.92;100405.38;5076592;28;20495;-83
2021/07/28 03:28:23;;;;;;;26.67;21.63;;;;;;;21.33;65.76;100406.25;5073938;28;20042;-83
2021/07/28 03:30:51;;;;;;;23.08;20.70;;;;;;;21.25;65.88;100408.34;5073580;28;20024;-83
2021/07/28 03:33:18;;;;;;;24.35;20.80;;;;;;;21.26;66.02;100410.88;5072988;28;20086;-83
2021/07/28 03:35:43;;;;;;;22.15;19.83;;;;;;;21.24;65.50;100410.25;5073604;28;20036;-83
2021/07/28 03:38:09;;;;;;;22.05;19.73;;;;;;;21.36;65.34;100412.34;5072463;28;20040;-83
2021/07/28 03:40:34;;;;;;;28.92;23.40;;;;;;;21.28;65.92;100416.13;5073837;28;20033;-83
2021/07/28 03:43:00;;;;;;;23.15;19.38;;;;;;;21.33;65.07;100416.31;5072828;28;20036;-83
2021/07/28 03:45:25;;;;;;;23.02;19.42;;;;;;;21.33;65.37;100419.03;5074870;28;20031;-83
2021/07/28 03:47:50;;;;;;;25.58;21.48;;;;;;;21.31;65.20;100418.44;5077910;28;20101;-84
2021/07/28 03:50:16;;;;;;;26.33;22.42;;;;;;;21.32;65.55;100420.13;5076334;28;20471;-84
2021/07/28 03:52:41;;;;;;;26.80;21.88;;;;;;;21.26;65.66;100408.13;5076665;28;20059;-83
2021/07/28 03:55:07;;;;;;;33.28;26.15;;;;;;;21.23;65.56;100405.00;5076089;28;20028;-84
2021/07/28 03:57:32;;;;;;;27.08;22.50;;;;;;;21.16;65.77;100405.00;5075477;28;20036;-83
2021/07/28 03:59:58;;;;;;;24.00;21.42;;;;;;;21.19;65.59;100406.47;5075787;28;20074;-83
2021/07/28 04:02:23;;;;;;;23.70;20.80;;;;;;;21.16;65.53;100402.28;5073173;28;20070;-84
2021/07/28 04:04:48;;;;;;;26.63;23.15;;;;;;;21.14;65.89;100401.63;5074451;28;20438;-83
2021/07/28 04:07:14;;;;;;;23.75;21.05;;;;;;;21.18;65.99;100397.44;5073073;28;20092;-83
2021/07/28 04:09:39;;;;;;;27.98;23.52;;;;;;;21.26;65.37;100388.97;5073527;28;20024;-84
2021/07/28 04:12:05;;;;;;;41.30;25.67;;;;;;;21.27;65.60;100390.69;5070111;28;20017;-85
2021/07/28 04:14:30;;;;;;;28.90;23.08;;;;;;;21.41;65.00;100391.50;5072228;28;20063;-84
2021/07/28 04:16:55;;;;;;;27.02;22.88;;;;;;;21.28;65.18;100389.63;5069190;28;20019;-84
2021/07/28 04:19:21;;;;;;;26.73;23.80;;;;;;;21.34;65.42;100404.34;5067934;28;20072;-83
2021/07/28 04:21:46;;;;;;;33.92;26.58;;;;;;;21.32;65.25;100399.06;5086899;28;20028;-84
2021/07/28 04:24:11;;;;;;;27.73;22.45;;;;;;;21.32;65.02;100392.75;5062857;28;20021;-84
2021/07/28 04:26:37;;;;;;;29.02;24.60;;;;;;;21.17;65.39;100395.72;5064670;28;20025;-84
2021/07/28 04:29:02;;;;;;;32.33;24.67;;;;;;;21.33;65.37;100394.44;5083974;28;20032;-84
2021/07/28 04:31:27;;;;;;;32.65;26.23;;;;;;;21.32;65.27;100400.97;5072465;28;20028;-84
2021/07/28 04:33:53;;;;;;;35.40;24.85;;;;;;;21.29;65.27;100395.94;5083441;28;20416;-84
2021/07/28 04:36:18;;;;;;;27.45;21.40;;;;;;;21.39;64.96;100390.03;5068214;28;20020;-84
2021/07/28 04:38:43;;;;;;;26.73;22.83;;;;;;;21.23;65.33;100394.03;5079663;28;20028;-84
2021/07/28 04:41:09;;;;;;;29.83;26.00;;;;;;;21.22;65.65;100395.09;5071899;28;20028;-83
2021/07/28 04:43:34;;;;;;;29.30;23.55;;;;;;;21.26;65.25;100397.19;5085099;28;20031;-84
2021/07/28 04:46:00;;;;;;;27.90;22.98;;;;;;;21.19;65.52;100398.28;5073997;28;20112;-84
2021/07/28 04:48:29;;;;;;;31.85;23.17;;;;;;;21.19;65.05;100398.28;5079246;28;20028;-84
2021/07/28 04:50:56;;;;;;;27.10;20.42;;;;;;;21.19;65.07;100398.28;5081341;28;20059;-84
2021/07/28 04:53:22;;;;;;;26.00;21.50;;;;;;;21.15;65.33;100392.41;5071573;28;20024;-84
2021/07/28 04:55:52;;;;;;;25.08;22.38;;;;;;;21.19;65.32;100401.00;5082862;28;20031;-84
2021/07/28 04:58:18;;;;;;;28.50;22.55;;;;;;;21.15;65.13;100391.53;5076973;28;20027;-84
2021/07/28 05:00:43;;;;;;;26.30;21.83;;;;;;;21.20;64.84;100394.47;5076806;28;20035;-84
2021/07/28 05:03:08;;;;;;;30.85;20.83;;;;;;;21.17;64.86;100393.00;5081302;28;20024;-84
2021/07/28 05:05:34;;;;;;;23.08;20.02;;;;;;;21.13;65.00;100390.94;5069549;28;20540;-84
2021/07/28 05:07:59;;;;;;;23.45;20.45;;;;;;;21.09;64.66;100391.34;5081110;28;20025;-84
2021/07/28 05:10:25;;;;;;;22.25;19.20;;;;;;;21.25;64.22;100386.47;5076637;28;20033;-84
2021/07/28 05:12:50;;;;;;;23.25;19.63;;;;;;;21.42;63.99;100376.75;5079632;28;20029;-84
2021/07/28 05:15:16;;;;;;;23.27;19.27;;;;;;;21.48;63.72;100386.84;5066446;28;20028;-84
2021/07/28 05:17:41;;;;;;;24.75;21.15;;;;;;;21.50;63.58;100381.16;5084216;28;20059;-84
2021/07/28 05:20:19;;;;;;;24.48;20.15;;;;;;;21.48;63.45;100377.78;5074657;28;20047;-84
2021/07/28 05:22:48;;;;;;;24.10;20.95;;;;;;;21.47;63.07;100374.22;5074229;28;20028;-84
2021/07/28 05:25:16;;;;;;;27.98;21.15;;;;;;;21.38;63.38;100377.41;5081504;28;20024;-84
2021/07/28 05:27:41;;;;;;;24.23;19.95;;;;;;;21.44;63.49;100387.50;5070909;28;20447;-84
2021/07/28 05:30:07;;;;;;;19.88;17.75;;;;;;;21.60;62.82;100384.28;5080191;28;20028;-84
2021/07/28 05:32:33;;;;;;;21.85;18.10;;;;;;;21.69;63.23;100382.13;5077083;28;20468;-84
2021/07/28 05:34:58;;;;;;;23.30;20.65;;;;;;;21.54;62.97;100377.75;5071963;28;20111;-84
2021/07/28 05:37:24;;;;;;;25.55;20.40;;;;;;;21.59;62.78;100381.75;5083812;28;20026;-84
2021/07/28 05:39:50;;;;;;;23.50;19.42;;;;;;;21.77;62.06;100381.88;5069691;28;20046;-84
2021/07/28 05:42:15;;;;;;;23.40;19.23;;;;;;;21.77;62.10;100376.41;5079565;28;20029;-84
2021/07/28 05:44:41;;;;;;;26.80;20.95;;;;;;;21.86;62.19;100383.31;5077245;28;20038;-84
2021/07/28 05:47:06;;;;;;;24.25;19.70;;;;;;;21.88;61.92;100369.41;5071492;28;20395;-84
2021/07/28 05:49:32;;;;;;;25.88;20.13;;;;;;;21.72;62.30;100366.09;5068264;28;20081;-84
2021/07/28 05:51:58;;;;;;;26.73;20.67;;;;;;;21.63;62.39;100374.78;5080326;28;20104;-83
2021/07/28 05:54:23;;;;;;;27.80;21.23;;;;;;;21.67;62.44;100376.91;5074173;28;20028;-84
2021/07/28 05:56:49;;;;;;;27.25;21.13;;;;;;;21.60;62.89;100373.31;5073770;28;20036;-84
2021/07/28 05:59:15;;;;;;;27.50;20.60;;;;;;;21.74;62.23;100371.38;5080980;28;20502;-84
2021/07/28 06:01:40;;;;;;;23.08;20.52;;;;;;;21.59;62.59;100373.56;5071049;28;20032;-84
2021/07/28 06:04:05;;;;;;;21.48;18.38;;;;;;;21.93;62.14;100372.31;5079507;28;20021;-84
2021/07/28 06:06:31;;;;;;;21.80;19.33;;;;;;;21.96;61.62;100374.63;5075946;28;20024;-84
2021/07/28 06:08:56;;;;;;;24.48;18.90;;;;;;;22.10;61.13;100369.91;5073429;28;20425;-84
2021/07/28 06:11:22;;;;;;;26.40;19.55;;;;;;;22.23;60.63;100369.84;5077947;28;20028;-84
2021/07/28 06:13:47;;;;;;;22.40;19.85;;;;;;;22.14;61.00;100362.94;5083428;28;20020;-84
2021/07/28 06:16:13;;;;;;;22.90;19.00;;;;;;;22.15;60.99;100368.19;5073797;28;20024;-84
2021/07/28 06:18:38;;;;;;;25.95;20.73;;;;;;;21.87;61.33;100365.00;5075057;28;20028;-84
2021/07/28 06:21:04;;;;;;;22.05;19.45;;;;;;;22.14;60.38;100363.78;5078923;28;20098;-84
2021/07/28 06:23:29;;;;;;;21.92;19.40;;;;;;;22.10;61.28;100372.63;5068162;28;20039;-84
2021/07/28 06:25:55;;;;;;;23.25;20.52;;;;;;;22.02;60.99;100371.00;5082114;28;20035;-84
2021/07/28 06:28:20;;;;;;;22.20;19.23;;;;;;;22.24;60.54;100366.88;5072217;28;20047;-84
2021/07/28 06:30:45;;;;;;;22.45;19.48;;;;;;;22.15;60.91;100370.06;5074699;28;20024;-84
2021/07/28 06:33:11;;;;;;;20.13;18.02;;;;;;;22.15;60.84;100365.44;5082870;28;20031;-84
2021/07/28 06:35:36;;;;;;;23.23;20.20;;;;;;;22.29;60.87;100370.88;5068064;28;20028;-84
2021/07/28 06:38:03;;;;;;;22.55;19.17;;;;;;;22.14;60.57;100368.41;5080715;28;20020;-84
2021/07/28 06:40:28;;;;;;;23.40;17.42;;;;;;;22.40;59.92;100368.22;5074180;28;20645;-84
2021/07/28 06:42:54;;;;;;;25.52;19.92;;;;;;;22.10;60.62;100368.03;5073252;28;20021;-84
2021/07/28 06:45:19;;;;;;;21.10;18.48;;;;;;;22.18;60.58;100367.75;5082388;28;20387;-84
2021/07/28 06:47:44;;;;;;;22.75;19.02;;;;;;;22.11;60.92;100369.69;5068192;28;20105;-84
2021/07/28 06:50:10;;;;;;;21.83;18.17;;;;;;;22.13;60.60;100367.56;5078646;28;20029;-84
2021/07/28 06:52:35;;;;;;;20.70;18.17;;;;;;;22.34;60.03;100371.03;5076585;28;20411;-84
2021/07/28 06:55:01;;;;;;;22.48;18.02;;;;;;;22.40;59.40;100373.72;5072397;28;20039;-84
2021/07/28 06:57:26;;;;;;;18.33;16.50;;;;;;;22.41;59.58;100375.41;5081296;28;20032;-84
2021/07/28 06:59:52;;;;;;;19.55;17.50;;;;;;;22.33;59.63;100372.94;5071283;28;20653;-84
2021/07/28 07:02:18;;;;;;;20.00;15.30;;;;;;;22.56;58.77;100372.34;5078016;28;20021;-84
2021/07/28 07:04:43;;;;;;;20.80;15.88;;;;;;;22.59;58.39;100362.81;5077777;28;20028;-84
2021/07/28 07:07:08;;;;;;;17.42;15.70;;;;;;;22.44;58.23;100365.91;5072005;28;20039;-84
2021/07/28 07:09:34;;;;;;;20.40;15.10;;;;;;;22.24;58.33;100369.63;5083208;28;20039;-84
2021/07/28 07:11:59;;;;;;;15.65;13.95;;;;;;;22.27;58.32;100375.72;5066059;28;20023;-84
2021/07/28 07:14:24;;;;;;;15.70;13.98;;;;;;;22.25;58.02;100373.19;5072921;28;20101;-84
2021/07/28 07:16:50;;;;;;;17.92;13.75;;;;;;;22.20;58.33;100370.31;5073697;28;20482;-84
2021/07/28 07:19:15;;;;;;;14.88;11.90;;;;;;;22.25;58.52;100368.56;5081712;28;20059;-84
2021/07/28 07:21:40;;;;;;;13.45;12.15;;;;;;;22.49;57.67;100377.84;5070355;28;20031;-84
2021/07/28 07:24:06;;;;;;;13.00;11.65;;;;;;;22.85;57.13;100376.28;5080190;28;20469;-83
2021/07/28 07:26:31;;;;;;;13.98;11.25;;;;;;;23.13;56.04;100372.25;5075985;28;20020;-84
2021/07/28 07:28:56;;;;;;;13.75;12.18;;;;;;;23.25;56.02;100364.94;5072451;28;20039;-84
2021/07/28 07:31:22;;;;;;;13.85;11.85;;;;;;;23.14;55.55;100362.94;5082484;28;20031;-84
2021/07/28 07:33:47;;;;;;;13.80;12.20;;;;;;;23.28;55.94;100369.97;5070214;28;20024;-84
2021/07/28 07:36:22;;;;;;;14.48;12.98;;;;;;;22.98;55.90;100364.38;5079949;28;20607;-84
2021/07/28 07:38:48;;;;;;;13.40;12.20;;;;;;;22.78;56.07;100352.75;5076664;28;20020;-84
2021/07/28 07:41:14;;;;;;;17.08;12.15;;;;;;;22.77;56.72;100362.84;5069986;28;20048;-84
2021/07/28 07:43:39;;;;;;;12.80;11.50;;;;;;;22.74;56.39;100366.06;5080600;28;20052;-84
2021/07/28 07:46:05;;;;;;;14.38;12.65;;;;;;;23.08;55.90;100370.19;5070062;28;20551;-84
2021/07/28 07:48:31;;;;;;;13.75;11.93;;;;;;;22.99;57.41;100365.22;5076190;28;20870;-84
2021/07/28 07:50:56;;;;;;;11.60;10.43;;;;;;;22.96;56.04;100369.28;5082721;28;20059;-84
2021/07/28 07:53:22;;;;;;;12.93;11.38;;;;;;;22.99;56.58;100367.94;5073525;28;20097;-84
2021/07/28 07:55:47;;;;;;;14.18;10.90;;;;;;;22.54;55.79;100362.66;5086244;28;20032;-84
2021/07/28 07:58:12;;;;;;;10.98;9.88;;;;;;;22.43;55.43;100378.75;5075974;28;20024;-84
2021/07/28 08:00:38;;;;;;;9.93;8.98;;;;;;;22.27;56.11;100353.81;5076509;28;20494;-84
2021/07/28 08:03:03;;;;;;;11.65;9.52;;;;;;;21.99;55.67;100358.59;5081362;28;20027;-84
2021/07/28 08:05:28;;;;;;;10.68;8.50;;;;;;;22.13;55.10;100356.63;5070771;28;20024;-84
2021/07/28 08:07:54;;;;;;;11.07;8.85;;;;;;;22.12;54.87;100354.94;5085683;28;20028;-84
2021/07/28 08:10:19;;;;;;;15.43;8.00;;;;;;;22.43;55.43;100356.81;5078715;28;20024;-84
2021/07/28 08:12:44;;;;;;;11.80;7.82;;;;;;;22.59;54.17;100354.59;5086030;28;20107;-84
2021/07/28 08:15:10;;;;;;;9.35;7.85;;;;;;;22.90;53.32;100357.25;5076748;28;20032;-84
2021/07/28 08:17:35;;;;;;;10.20;7.65;;;;;;;22.90;52.32;100353.69;5079259;28;20052;-84
2021/07/28 08:20:01;;;;;;;9.98;8.20;;;;;;;22.87;52.45;100354.16;5075224;28;20492;-84
2021/07/28 08:22:27;;;;;;;8.95;8.05;;;;;;;22.87;52.64;100356.88;5078162;28;20052;-84
2021/07/28 08:24:53;;;;;;;11.10;8.52;;;;;;;22.91;52.83;100366.31;5082500;28;20053;-84
2021/07/28 08:27:19;;;;;;;8.05;7.18;;;;;;;22.70;52.15;100362.91;5072553;28;20032;-84
2021/07/28 08:29:44;;;;;;;10.25;7.13;;;;;;;22.72;52.56;100357.22;5086251;28;20040;-84
2021/07/28 08:32:09;;;;;;;7.90;7.10;;;;;;;22.67;51.61;100351.56;5074417;28;20012;-84
2021/07/28 08:34:35;;;;;;;9.80;7.22;;;;;;;22.70;52.59;100359.34;5079184;28;20028;-84
2021/07/28 08:37:00;;;;;;;9.68;7.30;;;;;;;22.64;52.72;100363.00;5082723;28;20032;-84
2021/07/28 08:39:26;;;;;;;11.52;7.57;;;;;;;22.80;52.82;100358.84;5073524;28;20024;-84
2021/07/28 08:41:53;;;;;;;8.50;6.82;;;;;;;22.86;52.18;100360.66;5083541;28;20025;-84
2021/07/28 08:44:21;;;;;;;11.32;7.78;;;;;;;22.70;52.73;100364.84;5077253;28;20066;-84
2021/07/28 08:46:49;;;;;;;8.55;7.45;;;;;;;22.88;52.75;100364.88;5076964;28;20028;-84
2021/07/28 08:49:14;;;;;;;9.05;7.40;;;;;;;22.83;53.75;100356.47;5083336;28;20448;-84
2021/07/28 08:51:43;;;;;;;13.63;8.10;;;;;;;22.68;52.94;100358.72;5070018;28;20124;-84
2021/07/28 08:54:09;;;;;;;11.07;7.57;;;;;;;22.72;52.69;100357.22;5082388;28;20031;-84
2021/07/28 08:56:39;;;;;;;10.15;7.10;;;;;;;22.86;52.52;100358.75;5069704;28;20408;-83
2021/07/28 08:59:05;;;;;;;9.43;7.03;;;;;;;22.93;51.44;100356.81;5083438;28;20157;-84
2021/07/28 09:01:30;;;;;;;12.82;6.88;;;;;;;22.98;51.31;100358.06;5070562;28;20537;-84
2021/07/28 09:03:55;;;;;;;11.80;6.80;;;;;;;23.11;50.85;100358.78;5072936;28;20043;-84
2021/07/28 09:06:28;;;;;;;9.32;6.88;;;;;;;23.54;51.13;100363.34;5079666;28;20111;-84
2021/07/28 09:09:01;;;;;;;9.20;7.60;;;;;;;23.77;49.74;100365.38;5080275;28;20031;-85
2021/07/28 09:11:27;;;;;;;8.05;7.22;;;;;;;23.80;50.11;100367.66;5070767;28;20020;-84
2021/07/28 09:13:57;;;;;;;10.27;7.25;;;;;;;23.72;49.78;100368.00;5073102;28;20024;-84
2021/07/28 09:16:23;;;;;;;10.82;7.45;;;;;;;23.84;50.19;100371.63;5080133;28;20075;-84
2021/07/28 09:18:51;;;;;;;10.18;6.55;;;;;;;23.98;50.04;100371.44;5067516;28;20510;-84
2021/07/28 09:21:19;;;;;;;12.15;6.82;;;;;;;24.08;50.43;100369.78;5081778;28;20052;-84
2021/07/28 09:23:46;;;;;;;14.85;7.25;;;;;;;24.10;50.05;100371.50;5070330;28;20024;-84
2021/07/28 09:26:31;;;;;;;13.23;7.70;;;;;;;24.26;50.94;100370.81;5079141;28;20431;-84
2021/07/28 09:29:09;;;;;;;10.93;7.35;;;;;;;24.42;48.97;100372.06;5081426;28;20020;-84
2021/07/28 09:31:40;;;;;;;11.95;7.72;;;;;;;23.75;49.82;100374.91;5071009;28;20103;-84
2021/07/28 09:34:29;;;;;;;9.93;6.67;;;;;;;24.41;48.38;100371.19;5079676;28;20507;-84
2021/07/28 09:36:58;;;;;;;9.48;6.43;;;;;;;24.38;47.67;100363.44;5080267;28;20723;-84
2021/07/28 09:39:30;;;;;;;9.40;6.25;;;;;;;24.64;46.82;100364.09;5070564;28;20032;-84
2021/07/28 09:41:57;;;;;;;9.32;5.82;;;;;;;24.76;46.59;100371.28;5082595;28;20021;-84
2021/07/28 09:44:29;;;;;;;12.05;6.53;;;;;;;24.70;46.58;100372.25;5075133;28;20156;-84
2021/07/28 09:47:06;;;;;;;11.50;5.78;;;;;;;24.53;46.21;100354.75;5087786;28;20130;-84
2021/07/28 09:49:32;;;;;;;9.10;4.60;;;;;;;24.49;46.20;100370.06;5070036;28;20032;-84
2021/07/28 09:51:58;;;;;;;7.65;5.43;;;;;;;24.40;46.74;100363.22;5080991;28;20025;-84
2021/07/28 09:54:29;;;;;;;10.07;5.63;;;;;;;24.50;46.51;100367.06;5074447;28;20035;-84
2021/07/28 09:56:59;;;;;;;6.97;5.43;;;;;;;24.64;46.66;100366.84;5075656;28;20035;-84
2021/07/28 09:59:24;;;;;;;12.20;5.43;;;;;;;24.28;46.40;100353.03;5083599;28;20399;-84
2021/07/28 10:01:52;;;;;;;6.87;5.57;;;;;;;23.85;47.21;100359.56;5070105;28;20267;-84
2021/07/28 10:04:18;;;;;;;8.93;5.75;;;;;;;23.87;47.05;100359.31;5077996;28;20608;-84
2021/07/28 10:06:52;;;;;;;7.80;5.43;;;;;;;24.09;46.62;100356.91;5078450;28;20100;-84
2021/07/28 10:09:21;;;;;;;11.63;5.65;;;;;;;24.17;46.86;100355.72;5070455;28;20024;-84
2021/07/28 10:11:48;;;;;;;10.63;6.13;;;;;;;23.95;47.43;100353.50;5054635;28;20495;-84
2021/07/28 10:14:20;;;;;;;8.52;6.03;;;;;;;24.31;46.95;100352.53;5077583;28;20024;-84
2021/07/28 10:16:46;;;;;;;8.02;5.85;;;;;;;24.35;46.86;100366.66;5078514;28;20031;-85
2021/07/28 10:19:12;;;;;;;8.40;6.90;;;;;;;24.30;47.04;100344.53;5081266;28;20024;-84
2021/07/28 10:21:39;;;;;;;8.20;5.32;;;;;;;24.57;46.97;100347.72;5064440;28;20688;-84
2021/07/28 10:24:06;;;;;;;8.10;5.43;;;;;;;24.94;45.46;100358.47;5071432;28;20100;-84
2021/07/28 10:26:35;;;;;;;11.52;5.80;;;;;;;24.80;46.21;100346.06;5077440;28;20024;-84
2021/07/28 10:29:00;;;;;;;8.75;6.43;;;;;;;24.98;46.48;100352.28;5079043;28;20024;-84
2021/07/28 10:31:28;;;;;;;8.25;4.93;;;;;;;25.22;46.51;100349.50;5069296;28;20035;-84
2021/07/28 10:33:54;;;;;;;6.63;5.10;;;;;;;25.68;45.33;100348.56;5080921;28;20447;-84
2021/07/28 10:36:23;;;;;;;5.32;4.47;;;;;;;25.65;45.00;100343.53;5074604;28;20028;-84
2021/07/28 10:38:56;;;;;;;8.45;4.57;;;;;;;25.59;44.59;100354.69;5073870;28;20030;-84
2021/07/28 10:41:37;;;;;;;10.18;5.47;;;;;;;24.93;46.55;100359.56;5083484;28;20027;-84
2021/07/28 10:44:10;;;;;;;9.10;5.30;;;;;;;24.77;47.94;100361.13;5072546;28;20026;-85
2021/07/28 10:46:54;;;;;;;8.18;5.53;;;;;;;23.77;53.06;100361.78;5075839;28;20032;-85
2021/07/28 10:49:34;;;;;;;8.23;5.43;;;;;;;23.71;52.88;100366.31;5082052;28;20369;-84
2021/07/28 10:52:01;;;;;;;6.38;4.90;;;;;;;24.08;51.94;100405.50;5056446;28;20337;-84
2021/07/28 10:54:45;;;;;;;6.43;4.50;;;;;;;24.22;50.79;100353.13;5077302;28;20041;-84
2021/07/28 10:57:33;;;;;;;5.88;5.05;;;;;;;23.60;53.08;100356.94;5080091;28;20048;-84
2021/07/28 10:59:59;;;;;;;6.30;4.95;;;;;;;23.34;54.17;100358.06;5055826;28;20462;-85
2021/07/28 11:03:00;;;;;;;7.10;5.47;;;;;;;23.33;54.37;100356.41;5077256;28;20032;-84
2021/07/28 11:05:35;;;;;;;12.47;6.10;;;;;;;23.38;56.61;100362.03;5081175;28;20032;-85
2021/07/28 11:08:07;;;;;;;9.25;6.30;;;;;;;23.57;53.78;100351.91;5072714;28;20285;-85
2021/07/28 11:10:37;;;;;;;7.00;6.13;;;;;;;23.61;54.41;100358.59;5074755;28;20408;-85
2021/07/28 11:13:14;;;;;;;9.38;5.85;;;;;;;23.36;53.71;100349.63;5065792;28;20357;-85
2021/07/28 11:15:41;;;;;;;8.30;6.68;;;;;;;23.42;54.87;100345.09;5080861;28;20408;-85
2021/07/28 11:18:07;;;;;;;7.28;6.57;;;;;;;23.15;60.75;100348.19;5072379;28;20024;-85